createdAt,value
2023-03-29T00:00:09.473Z,93573.63
2023-03-29T00:02:39.180Z,93586.31
2023-03-29T00:05:07.692Z,93583.56
2023-03-29T00:07:35.518Z,93587.72
2023-03-29T00:10:04.879Z,93590.31
2023-03-29T00:12:33.028Z,93591.41
2023-03-29T00:15:00.547Z,93596.75
2023-03-29T00:17:28.430Z,93605.53
2023-03-29T00:19:56.300Z,93615.34
2023-03-29T00:22:24.132Z,93608.78
2023-03-29T00:24:54.306Z,93612.00
2023-03-29T00:27:23.023Z,93625.12
2023-03-29T00:29:50.378Z,93610.72
2023-03-29T00:32:17.710Z,93620.00
2023-03-29T00:34:46.252Z,93630.13
2023-03-29T00:37:15.052Z,93621.28
2023-03-29T00:39:42.584Z,93628.56
2023-03-29T00:42:15.521Z,93615.84
2023-03-29T00:45:04.221Z,93619.03
2023-03-29T00:47:41.826Z,93607.66
2023-03-29T00:50:13.330Z,93597.22
2023-03-29T00:52:42.927Z,93613.44
2023-03-29T00:55:15.765Z,93612.66
2023-03-29T00:57:46.864Z,93607.31
2023-03-29T01:00:21.048Z,93613.25
2023-03-29T01:02:54.469Z,93616.78
2023-03-29T01:05:32.373Z,93601.69
2023-03-29T01:08:18.241Z,93611.97
2023-03-29T01:10:52.475Z,93609.41
2023-03-29T01:13:28.840Z,93618.22
2023-03-29T01:15:58.706Z,93609.06
2023-03-29T01:18:26.343Z,93606.19
2023-03-29T01:21:12.742Z,93606.84
2023-03-29T01:23:54.798Z,93598.19
2023-03-29T01:26:51.319Z,93618.91
2023-03-29T01:29:30.205Z,93618.06
2023-03-29T01:32:09.150Z,93621.25
2023-03-29T01:34:53.355Z,93610.34
2023-03-29T01:37:39.552Z,93620.50
2023-03-29T01:40:07.836Z,93618.69
2023-03-29T01:43:04.761Z,93625.94
2023-03-29T01:45:46.958Z,93624.66
2023-03-29T01:48:19.183Z,93617.84
2023-03-29T01:51:13.759Z,93621.31
2023-03-29T01:53:47.005Z,93624.41
2023-03-29T01:56:23.069Z,93625.88
2023-03-29T01:58:54.649Z,93629.66
2023-03-29T02:01:30.195Z,93629.13
2023-03-29T02:04:03.955Z,93623.00
2023-03-29T02:06:34.268Z,93634.03
2023-03-29T02:09:03.917Z,93621.25
2023-03-29T02:11:31.135Z,93631.22
2023-03-29T02:13:58.766Z,93629.56
2023-03-29T02:16:26.053Z,93635.22
2023-03-29T02:18:56.526Z,93631.31
2023-03-29T02:21:36.598Z,93638.75
2023-03-29T02:24:08.139Z,93627.00
2023-03-29T02:26:36.409Z,93636.78
2023-03-29T02:29:03.934Z,93641.00
2023-03-29T02:31:38.112Z,93631.31
2023-03-29T02:34:08.972Z,93644.84
2023-03-29T02:36:58.972Z,93645.81
2023-03-29T02:39:29.251Z,93639.03
2023-03-29T02:41:59.632Z,93648.34
2023-03-29T02:44:29.886Z,93649.56
2023-03-29T02:47:02.302Z,93649.78
2023-03-29T02:49:30.161Z,93652.97
2023-03-29T02:52:07.542Z,93655.59
2023-03-29T02:54:38.095Z,93649.12
2023-03-29T02:57:08.781Z,93655.25
2023-03-29T02:59:38.718Z,93664.06
2023-03-29T03:02:06.148Z,93658.31
2023-03-29T03:04:35.730Z,93661.66
2023-03-29T03:07:05.452Z,93663.31
2023-03-29T03:09:32.997Z,93665.97
2023-03-29T03:12:00.654Z,93668.09
2023-03-29T03:14:28.405Z,93670.09
2023-03-29T03:16:58.001Z,93678.97
2023-03-29T03:19:25.393Z,93685.56
2023-03-29T03:21:53.092Z,93684.59
2023-03-29T03:24:21.188Z,93689.06
2023-03-29T03:26:48.540Z,93681.75
2023-03-29T03:29:16.738Z,93686.69
2023-03-29T03:31:45.863Z,93688.81
2023-03-29T03:34:13.500Z,93703.19
2023-03-29T03:36:41.483Z,93698.28
2023-03-29T03:39:09.902Z,93681.72
2023-03-29T03:41:37.300Z,93699.97
2023-03-29T03:44:05.789Z,93688.84
2023-03-29T03:46:33.424Z,93698.16
2023-03-29T03:49:00.956Z,93707.47
2023-03-29T03:51:28.755Z,93715.81
2023-03-29T03:53:56.306Z,93714.69
2023-03-29T03:56:26.011Z,93711.50
2023-03-29T03:58:54.764Z,93715.69
2023-03-29T04:01:22.043Z,93710.06
2023-03-29T04:03:49.904Z,93715.84
2023-03-29T04:06:18.153Z,93713.75
2023-03-29T04:08:48.386Z,93717.16
2023-03-29T04:11:16.459Z,93719.81
2023-03-29T04:13:43.901Z,93712.78
2023-03-29T04:16:16.784Z,93723.25
2023-03-29T04:18:44.775Z,93725.69
2023-03-29T04:21:12.913Z,93720.94
2023-03-29T04:23:40.428Z,93720.81
2023-03-29T04:26:08.062Z,93727.84
2023-03-29T04:28:36.385Z,93720.16
2023-03-29T04:31:04.880Z,93725.88
2023-03-29T04:33:33.102Z,93720.16
2023-03-29T04:36:00.667Z,93729.50
2023-03-29T04:38:28.434Z,93713.06
2023-03-29T04:40:56.421Z,93728.00
2023-03-29T04:43:24.270Z,93723.47
2023-03-29T04:45:52.733Z,93724.94
2023-03-29T04:48:23.961Z,93729.81
2023-03-29T04:50:54.612Z,93735.94
2023-03-29T04:53:22.871Z,93732.66
2023-03-29T04:55:50.649Z,93738.78
2023-03-29T04:58:20.087Z,93744.44
2023-03-29T05:00:50.300Z,93740.66
2023-03-29T05:03:18.812Z,93744.66
2023-03-29T05:05:47.856Z,93741.66
2023-03-29T05:08:16.354Z,93753.16
2023-03-29T05:10:45.059Z,93752.59
2023-03-29T05:13:12.849Z,93742.69
2023-03-29T05:15:41.939Z,93762.16
2023-03-29T05:18:09.904Z,93764.72
2023-03-29T05:20:38.019Z,93756.63
2023-03-29T05:23:05.791Z,93769.06
2023-03-29T05:25:37.188Z,93775.19
2023-03-29T05:28:04.733Z,93771.63
2023-03-29T05:30:32.726Z,93783.69
2023-03-29T05:33:02.437Z,93773.53
2023-03-29T05:35:30.796Z,93776.81
2023-03-29T05:38:00.701Z,93753.88
2023-03-29T05:40:28.424Z,93783.38
2023-03-29T05:42:56.654Z,93775.00
2023-03-29T05:45:24.901Z,93779.78
2023-03-29T05:47:52.338Z,93799.34
2023-03-29T05:50:20.087Z,93816.03
2023-03-29T05:52:48.836Z,93801.03
2023-03-29T05:55:16.210Z,93797.22
2023-03-29T05:57:43.758Z,93796.59
2023-03-29T06:00:25.713Z,93813.53
2023-03-29T06:02:59.283Z,93816.78
2023-03-29T06:05:35.227Z,93821.97
2023-03-29T06:08:03.500Z,93824.12
2023-03-29T06:10:33.101Z,93819.41
2023-03-29T06:13:02.155Z,93809.28
2023-03-29T06:15:33.183Z,93824.91
2023-03-29T06:18:02.572Z,93824.28
2023-03-29T06:20:30.390Z,93832.81
2023-03-29T06:22:58.603Z,93843.44
2023-03-29T06:25:25.864Z,93839.09
2023-03-29T06:27:54.373Z,93842.31
2023-03-29T06:30:21.769Z,93841.50
2023-03-29T06:32:50.640Z,93843.00
2023-03-29T06:35:18.680Z,93835.75
2023-03-29T06:37:53.847Z,93841.25
2023-03-29T06:40:24.884Z,93845.06
2023-03-29T06:42:57.919Z,93852.16
2023-03-29T06:45:29.491Z,93854.25
2023-03-29T06:47:57.865Z,93855.72
2023-03-29T06:50:26.649Z,93849.09
2023-03-29T06:52:54.214Z,93854.88
2023-03-29T06:55:23.412Z,93863.56
2023-03-29T06:57:58.259Z,93844.75
2023-03-29T07:00:30.074Z,93845.72
2023-03-29T07:03:01.055Z,93857.47
2023-03-29T07:05:33.625Z,93851.19
2023-03-29T07:08:05.870Z,93846.84
2023-03-29T07:10:38.529Z,93849.59
2023-03-29T07:13:13.408Z,93851.81
2023-03-29T07:15:41.892Z,93850.06
2023-03-29T07:18:11.562Z,93861.62
2023-03-29T07:20:39.229Z,93858.59
2023-03-29T07:23:08.346Z,93857.63
2023-03-29T07:25:36.689Z,93857.75
2023-03-29T07:28:04.601Z,93854.28
2023-03-29T07:30:32.877Z,93864.25
2023-03-29T07:33:05.112Z,93866.31
2023-03-29T07:35:33.894Z,93851.78
2023-03-29T07:38:01.406Z,93864.66
2023-03-29T07:40:29.616Z,93856.13
2023-03-29T07:42:59.271Z,93873.19
2023-03-29T07:45:29.206Z,93857.91
2023-03-29T07:47:59.746Z,93857.22
2023-03-29T07:50:28.922Z,93852.88
2023-03-29T07:52:57.152Z,93853.19
2023-03-29T07:55:24.570Z,93850.00
2023-03-29T07:57:53.760Z,93859.81
2023-03-29T08:00:22.556Z,93836.63
2023-03-29T08:02:52.643Z,93838.91
2023-03-29T08:05:37.753Z,93831.00
2023-03-29T08:08:09.943Z,93828.41
2023-03-29T08:10:41.055Z,93835.03
2023-03-29T08:13:10.595Z,93834.22
2023-03-29T08:15:40.288Z,93834.75
2023-03-29T08:18:10.408Z,93838.22
2023-03-29T08:20:38.020Z,93819.53
2023-03-29T08:23:05.524Z,93806.03
2023-03-29T08:25:35.512Z,93803.38
2023-03-29T08:28:03.640Z,93808.16
2023-03-29T08:30:32.050Z,93810.81
2023-03-29T08:33:02.083Z,93805.03
2023-03-29T08:35:29.864Z,93810.66
2023-03-29T08:37:58.714Z,93815.91
2023-03-29T08:40:30.195Z,93817.91
2023-03-29T08:43:06.342Z,93807.44
2023-03-29T08:45:44.093Z,93804.34
2023-03-29T08:48:40.376Z,93797.81
2023-03-29T08:51:28.028Z,93794.97
2023-03-29T08:54:05.277Z,93800.38
2023-03-29T08:56:38.612Z,93785.34
2023-03-29T08:59:20.435Z,93799.28
2023-03-29T09:01:50.960Z,93804.53
2023-03-29T09:04:23.347Z,93799.56
2023-03-29T09:06:52.212Z,93793.44
2023-03-29T09:09:22.980Z,93786.91
2023-03-29T09:12:12.986Z,93790.78
2023-03-29T09:14:52.232Z,93786.00
2023-03-29T09:17:36.360Z,93778.12
2023-03-29T09:20:34.729Z,93785.44
2023-03-29T09:23:19.809Z,93799.59
2023-03-29T09:25:55.559Z,93778.31
2023-03-29T09:28:46.728Z,93786.34
2023-03-29T09:31:20.299Z,93776.81
2023-03-29T09:33:58.263Z,93770.00
2023-03-29T09:36:28.670Z,93766.34
2023-03-29T09:38:57.661Z,93774.06
2023-03-29T09:41:33.948Z,93765.66
2023-03-29T09:44:12.737Z,93770.06
2023-03-29T09:47:02.143Z,93766.44
2023-03-29T09:49:36.504Z,93771.78
2023-03-29T09:52:13.325Z,93757.97
2023-03-29T09:54:44.242Z,93759.78
2023-03-29T09:57:21.705Z,93756.66
2023-03-29T09:59:51.973Z,93754.94
2023-03-29T10:02:21.524Z,93754.56
2023-03-29T10:05:01.026Z,93778.25
2023-03-29T10:07:46.447Z,93780.81
2023-03-29T10:10:33.571Z,93758.69
2023-03-29T10:13:31.791Z,93758.69
2023-03-29T10:16:08.376Z,93755.22
2023-03-29T10:18:43.066Z,93753.19
2023-03-29T10:21:19.072Z,93746.03
2023-03-29T10:23:47.120Z,93743.06
2023-03-29T10:26:23.030Z,93749.25
2023-03-29T10:28:54.949Z,93742.25
2023-03-29T10:31:24.106Z,93739.88
2023-03-29T10:33:57.301Z,93757.66
2023-03-29T10:36:27.939Z,93729.66
2023-03-29T10:38:59.377Z,93726.00
2023-03-29T10:41:29.880Z,93728.87
2023-03-29T10:43:58.210Z,93739.22
2023-03-29T10:46:32.070Z,93731.44
2023-03-29T10:49:06.258Z,93723.53
2023-03-29T10:51:34.727Z,93734.41
2023-03-29T10:54:03.580Z,93713.03
2023-03-29T10:56:42.729Z,93714.81
2023-03-29T10:59:14.667Z,93715.63
2023-03-29T11:02:07.631Z,93706.41
2023-03-29T11:04:44.914Z,93724.53
2023-03-29T11:07:15.707Z,93694.75
2023-03-29T11:10:01.749Z,93723.28
2023-03-29T11:12:35.261Z,93692.03
2023-03-29T11:15:36.758Z,93700.06
2023-03-29T11:18:24.327Z,93685.50
2023-03-29T11:21:17.056Z,93676.28
2023-03-29T11:24:04.881Z,93677.13
2023-03-29T11:26:57.189Z,93679.41
2023-03-29T11:29:41.872Z,93680.72
2023-03-29T11:32:12.609Z,93671.69
2023-03-29T11:34:52.884Z,93682.13
2023-03-29T11:37:28.403Z,93675.75
2023-03-29T11:40:07.972Z,93678.19
2023-03-29T11:42:41.409Z,93704.81
2023-03-29T11:45:15.355Z,93702.78
2023-03-29T11:47:45.280Z,93691.94
2023-03-29T11:50:33.109Z,93696.72
2023-03-29T11:53:28.141Z,93695.19
2023-03-29T11:55:58.622Z,93704.75
2023-03-29T11:58:39.112Z,93698.53
2023-03-29T12:01:34.716Z,93688.16
2023-03-29T12:04:11.106Z,93691.94
2023-03-29T12:06:49.037Z,93688.59
2023-03-29T12:09:27.709Z,93684.47
2023-03-29T12:12:20.324Z,93709.09
2023-03-29T12:15:29.737Z,93700.53
2023-03-29T12:18:07.264Z,93682.56
2023-03-29T12:20:40.064Z,93690.50
2023-03-29T12:23:13.166Z,93685.84
2023-03-29T12:26:02.429Z,93688.03
2023-03-29T12:29:06.941Z,93675.72
2023-03-29T12:31:40.563Z,93680.13
2023-03-29T12:34:35.113Z,93689.19
2023-03-29T12:37:32.197Z,93680.00
2023-03-29T12:40:21.056Z,93680.66
2023-03-29T12:42:57.037Z,93677.72
2023-03-29T12:45:43.055Z,93686.72
2023-03-29T12:48:27.399Z,93682.56
2023-03-29T12:51:01.210Z,93689.09
2023-03-29T12:53:35.928Z,93694.16
2023-03-29T12:56:04.080Z,93669.97
2023-03-29T12:58:54.079Z,93675.97
2023-03-29T13:01:33.807Z,93686.00
2023-03-29T13:04:01.530Z,93682.09
2023-03-29T13:07:03.658Z,93686.22
2023-03-29T13:09:51.345Z,93693.97
2023-03-29T13:12:36.037Z,93680.66
2023-03-29T13:15:22.294Z,93677.91
2023-03-29T13:18:11.785Z,93684.75
2023-03-29T13:21:09.293Z,93686.62
2023-03-29T13:23:49.973Z,93703.63
2023-03-29T13:26:35.553Z,93690.34
2023-03-29T13:29:37.615Z,93689.34
2023-03-29T13:32:27.680Z,93685.81
2023-03-29T13:34:58.012Z,93678.09
2023-03-29T13:37:38.622Z,93697.87
2023-03-29T13:40:32.056Z,93669.63
2023-03-29T13:43:19.362Z,93680.06
2023-03-29T13:46:05.813Z,93673.59
2023-03-29T13:49:00.435Z,93682.03
2023-03-29T13:51:34.097Z,93683.13
2023-03-29T13:54:10.930Z,93694.88
2023-03-29T13:57:11.967Z,93683.19
2023-03-29T14:00:00.823Z,93688.22
2023-03-29T14:02:33.055Z,93686.50
2023-03-29T14:05:02.428Z,93680.47
2023-03-29T14:07:32.794Z,93677.81
2023-03-29T14:10:01.467Z,93689.72
2023-03-29T14:12:36.120Z,93702.69
2023-03-29T14:15:06.692Z,93672.97
2023-03-29T14:17:36.995Z,93701.25
2023-03-29T14:20:09.338Z,93687.16
2023-03-29T14:22:38.047Z,93689.50
2023-03-29T14:25:15.815Z,93687.03
2023-03-29T14:27:44.363Z,93693.47
2023-03-29T14:30:25.389Z,93680.78
2023-03-29T14:32:53.626Z,93681.13
2023-03-29T14:35:28.962Z,93684.59
2023-03-29T14:37:57.336Z,93702.63
2023-03-29T14:40:24.794Z,93685.06
2023-03-29T14:42:52.273Z,93673.09
2023-03-29T14:45:23.544Z,93698.66
2023-03-29T14:47:51.750Z,93684.75
2023-03-29T14:50:29.303Z,93695.72
2023-03-29T14:52:58.971Z,93682.34
2023-03-29T14:55:27.489Z,93688.81
2023-03-29T14:57:55.654Z,93686.06
2023-03-29T15:00:28.573Z,93694.47
2023-03-29T15:03:01.183Z,93706.09
2023-03-29T15:05:37.324Z,93700.50
2023-03-29T15:08:07.761Z,93698.06
2023-03-29T15:10:37.505Z,93714.16
2023-03-29T15:13:06.912Z,93697.06
2023-03-29T15:15:38.542Z,93708.84
2023-03-29T15:18:08.276Z,93706.91
2023-03-29T15:20:40.273Z,93718.69
2023-03-29T15:23:16.883Z,93718.13
2023-03-29T15:26:07.574Z,93703.19
2023-03-29T15:28:45.042Z,93709.31
2023-03-29T15:31:15.481Z,93720.66
2023-03-29T15:33:43.064Z,93714.47
2023-03-29T15:36:13.310Z,93707.63
2023-03-29T15:38:45.028Z,93720.13
2023-03-29T15:41:14.685Z,93730.66
2023-03-29T15:43:43.229Z,93727.87
2023-03-29T15:46:16.959Z,93725.00
2023-03-29T15:48:44.670Z,93736.78
2023-03-29T15:51:12.798Z,93722.47
2023-03-29T15:53:41.109Z,93746.72
2023-03-29T15:56:11.725Z,93744.94
2023-03-29T15:58:39.447Z,93743.16
2023-03-29T16:01:23.813Z,93752.31
2023-03-29T16:03:51.708Z,93746.25
2023-03-29T16:06:22.399Z,93750.28
2023-03-29T16:08:49.751Z,93759.81
2023-03-29T16:11:17.672Z,93755.56
2023-03-29T16:13:44.980Z,93765.16
2023-03-29T16:16:12.528Z,93760.94
2023-03-29T16:18:40.445Z,93760.63
2023-03-29T16:21:13.526Z,93748.38
2023-03-29T16:23:43.010Z,93754.44
2023-03-29T16:26:15.218Z,93756.44
2023-03-29T16:28:43.357Z,93773.66
2023-03-29T16:31:12.736Z,93767.66
2023-03-29T16:33:41.644Z,93761.63
2023-03-29T16:36:10.248Z,93770.38
2023-03-29T16:38:37.717Z,93774.75
2023-03-29T16:41:05.521Z,93791.09
2023-03-29T16:43:33.325Z,93789.34
2023-03-29T16:46:00.718Z,93785.12
2023-03-29T16:48:28.567Z,93786.75
2023-03-29T16:50:57.110Z,93792.31
2023-03-29T16:53:24.566Z,93793.72
2023-03-29T16:55:51.935Z,93798.50
2023-03-29T16:58:19.818Z,93798.69
2023-03-29T17:00:48.484Z,93796.16
2023-03-29T17:03:17.235Z,93799.94
2023-03-29T17:05:53.374Z,93801.12
2023-03-29T17:08:22.074Z,93804.09
2023-03-29T17:10:55.712Z,93803.94
2023-03-29T17:13:24.122Z,93813.75
2023-03-29T17:15:53.712Z,93809.56
2023-03-29T17:18:21.714Z,93819.16
2023-03-29T17:20:50.828Z,93819.37
2023-03-29T17:23:19.113Z,93826.53
2023-03-29T17:25:46.928Z,93831.28
2023-03-29T17:28:14.285Z,93828.31
2023-03-29T17:30:44.215Z,93828.72
2023-03-29T17:33:11.689Z,93823.31
2023-03-29T17:35:42.298Z,93824.53
2023-03-29T17:38:11.245Z,93829.31
2023-03-29T17:40:39.428Z,93831.94
2023-03-29T17:43:06.801Z,93833.00
2023-03-29T17:45:35.584Z,93832.81
2023-03-29T17:48:05.542Z,93833.97
2023-03-29T17:50:34.493Z,93839.81
2023-03-29T17:53:01.797Z,93838.03
2023-03-29T17:55:29.545Z,93849.22
2023-03-29T17:57:57.567Z,93844.09
2023-03-29T18:00:25.057Z,93845.09
2023-03-29T18:02:52.925Z,93851.28
2023-03-29T18:05:20.385Z,93850.84
2023-03-29T18:07:47.841Z,93851.47
2023-03-29T18:10:15.945Z,93857.09
2023-03-29T18:12:43.342Z,93857.87
2023-03-29T18:15:11.428Z,93858.88
2023-03-29T18:17:40.346Z,93864.87
2023-03-29T18:20:11.829Z,93855.22
2023-03-29T18:22:41.961Z,93857.56
2023-03-29T18:25:10.330Z,93864.19
2023-03-29T18:27:39.084Z,93864.97
2023-03-29T18:30:07.577Z,93875.28
2023-03-29T18:32:35.377Z,93871.31
2023-03-29T18:35:03.659Z,93868.94
2023-03-29T18:37:31.400Z,93872.00
2023-03-29T18:39:58.764Z,93868.81
2023-03-29T18:42:26.306Z,93869.81
2023-03-29T18:44:54.099Z,93864.03
2023-03-29T18:47:21.721Z,93863.22
2023-03-29T18:49:49.069Z,93874.06
2023-03-29T18:52:16.898Z,93868.13
2023-03-29T18:54:44.190Z,93869.03
2023-03-29T18:57:11.703Z,93861.22
2023-03-29T18:59:39.635Z,93869.28
2023-03-29T19:02:07.374Z,93866.09
2023-03-29T19:04:34.844Z,93866.91
2023-03-29T19:07:03.690Z,93858.78
2023-03-29T19:09:31.790Z,93855.69
2023-03-29T19:11:59.260Z,93860.09
2023-03-29T19:14:27.077Z,93859.50
2023-03-29T19:16:54.616Z,93858.13
2023-03-29T19:19:23.482Z,93857.63
2023-03-29T19:21:51.236Z,93860.28
2023-03-29T19:24:18.615Z,93853.66
2023-03-29T19:26:48.066Z,93860.66
2023-03-29T19:29:15.813Z,93859.16
2023-03-29T19:31:43.323Z,93855.56
2023-03-29T19:34:11.475Z,93852.34
2023-03-29T19:36:39.441Z,93845.31
2023-03-29T19:39:07.367Z,93840.47
2023-03-29T19:41:34.959Z,93847.38
2023-03-29T19:44:03.362Z,93853.34
2023-03-29T19:46:30.988Z,93851.81
2023-03-29T19:48:59.836Z,93854.69
2023-03-29T19:51:28.129Z,93849.19
2023-03-29T19:53:56.453Z,93842.47
2023-03-29T19:56:26.124Z,93848.88
2023-03-29T19:58:53.863Z,93845.94
2023-03-29T20:01:21.941Z,93853.91
2023-03-29T20:03:50.847Z,93847.38
2023-03-29T20:06:20.614Z,93838.31
2023-03-29T20:08:48.054Z,93846.59
2023-03-29T20:11:16.838Z,93849.38
2023-03-29T20:13:45.674Z,93854.19
2023-03-29T20:16:16.122Z,93850.69
2023-03-29T20:18:47.161Z,93853.19
2023-03-29T20:21:17.100Z,93857.69
2023-03-29T20:23:45.189Z,93851.47
2023-03-29T20:26:12.714Z,93848.25
2023-03-29T20:28:40.133Z,93851.44
2023-03-29T20:31:11.013Z,93848.69
2023-03-29T20:33:39.450Z,93853.75
2023-03-29T20:36:07.322Z,93841.34
2023-03-29T20:38:36.110Z,93845.56
2023-03-29T20:41:05.247Z,93848.59
2023-03-29T20:43:37.756Z,93851.75
2023-03-29T20:46:14.440Z,93852.13
2023-03-29T20:48:53.473Z,93849.28
2023-03-29T20:51:22.869Z,93843.13
2023-03-29T20:53:50.941Z,93845.28
2023-03-29T20:56:19.204Z,93846.25
2023-03-29T20:58:47.117Z,93843.41
2023-03-29T21:01:14.565Z,93845.56
2023-03-29T21:03:42.627Z,93848.78
2023-03-29T21:06:14.236Z,93850.16
2023-03-29T21:08:42.793Z,93842.37
2023-03-29T21:11:13.214Z,93846.31
2023-03-29T21:13:41.647Z,93837.94
2023-03-29T21:16:09.347Z,93835.28
2023-03-29T21:18:38.830Z,93842.63
2023-03-29T21:21:10.938Z,93841.00
2023-03-29T21:23:39.004Z,93832.66
2023-03-29T21:26:09.554Z,93836.13
2023-03-29T21:28:37.856Z,93827.00
2023-03-29T21:31:06.845Z,93835.81
2023-03-29T21:33:35.315Z,93830.69
2023-03-29T21:36:02.901Z,93830.69
2023-03-29T21:38:30.870Z,93834.31
2023-03-29T21:40:58.394Z,93832.91
2023-03-29T21:43:25.965Z,93827.28
2023-03-29T21:45:53.749Z,93836.78
2023-03-29T21:48:21.163Z,93830.66
2023-03-29T21:50:51.299Z,93822.72
2023-03-29T21:53:19.028Z,93832.19
2023-03-29T21:55:49.148Z,93832.28
2023-03-29T21:58:16.915Z,93839.06
2023-03-29T22:00:45.672Z,93826.28
2023-03-29T22:03:14.881Z,93828.28
2023-03-29T22:05:42.267Z,93842.37
2023-03-29T22:08:12.342Z,93833.69
2023-03-29T22:10:41.622Z,93827.59
2023-03-29T22:13:09.534Z,93818.41
2023-03-29T22:15:36.941Z,93815.50
2023-03-29T22:18:05.357Z,93825.13
2023-03-29T22:20:34.363Z,93816.06
2023-03-29T22:23:01.953Z,93821.75
2023-03-29T22:25:29.550Z,93819.91
2023-03-29T22:27:57.109Z,93817.00
2023-03-29T22:30:24.450Z,93822.41
2023-03-29T22:32:52.306Z,93819.25
2023-03-29T22:35:19.693Z,93821.34
2023-03-29T22:37:47.050Z,93819.63
2023-03-29T22:40:14.884Z,93816.22
2023-03-29T22:42:42.340Z,93814.34
2023-03-29T22:45:10.530Z,93814.53
2023-03-29T22:47:38.320Z,93811.03
2023-03-29T22:50:07.431Z,93818.19
2023-03-29T22:52:34.772Z,93824.81
2023-03-29T22:55:02.648Z,93819.16
2023-03-29T22:57:30.009Z,93828.13
2023-03-29T22:59:57.330Z,93823.81
2023-03-29T23:02:25.149Z,93822.81
2023-03-29T23:04:52.444Z,93817.84
2023-03-29T23:07:19.705Z,93822.34
2023-03-29T23:09:47.363Z,93830.81
2023-03-29T23:12:14.764Z,93815.59
2023-03-29T23:14:42.966Z,93805.88
2023-03-29T23:17:11.058Z,93812.91
2023-03-29T23:19:38.381Z,93810.28
2023-03-29T23:22:05.770Z,93814.41
2023-03-29T23:24:33.632Z,93803.59
2023-03-29T23:27:01.502Z,93809.78
2023-03-29T23:29:28.967Z,93805.56
2023-03-29T23:31:57.697Z,93807.59
2023-03-29T23:34:25.429Z,93803.63
2023-03-29T23:36:52.770Z,93805.19
2023-03-29T23:39:20.404Z,93810.84
2023-03-29T23:41:48.116Z,93809.53
2023-03-29T23:44:15.444Z,93798.59
2023-03-29T23:46:43.069Z,93808.12
2023-03-29T23:49:10.811Z,93801.56
2023-03-29T23:51:39.317Z,93813.88
2023-03-29T23:54:07.363Z,93807.91
2023-03-29T23:56:34.830Z,93804.91
2023-03-29T23:59:03.424Z,93804.03
